• Join FlightAware (Why Join?)
  • Login
  • US Flag 
01:35AM EDT


 

Airport Tracker/Info


-or-


 

Live Flight TrackerFlight Track Log ✈ GUG716 ✈ 22-Jul-2013 ✈ MROC / SJO - MNMG / MGA

Flight Track Log - Related Links

Times and Time Zones

All times are in EDT time to prevent confusion due to time zone crossing. See the GUG716 flight status page for this flight to view local times or setup timezone preferences in your user account.

Time Position Orientation Groundspeed Altitude Reporting Facility
EDT Latitude Longitude Course Direction KTS MPH feet Rate Location/Type
02:55PM 10.5076 -84.6739 318° Northwest  Level Estimated
02:56PM 10.5542 -84.7162 318° Northwest  Level Estimated
02:57PM 10.6009 -84.7586 318° Northwest  Level Estimated
02:58PM 10.6475 -84.8010 318° Northwest  Level Estimated
02:59PM 10.6942 -84.8434 318° Northwest  Level Estimated
03:00PM 10.7408 -84.8858 318° Northwest  Level Estimated
03:01PM 10.7875 -84.9282 318° Northwest  Level Estimated
03:02PM 10.8341 -84.9706 318° Northwest  Level Estimated
03:03PM 10.8807 -85.0131 318° Northwest  Level Estimated
03:04PM 10.9274 -85.0556 318° Northwest  Level Estimated
03:05PM 10.9740 -85.0980 318° Northwest  Level Estimated
03:06PM 11.0206 -85.1405 318° Northwest  Level Estimated
03:07PM 11.0672 -85.1830 318° Northwest  Level Estimated
03:08PM 11.1138 -85.2255 318° Northwest  Level Estimated
03:09PM 11.1604 -85.2681 318° Northwest  Level Estimated
03:10PM 11.2070 -85.3106 318° Northwest  Level Estimated
03:11PM 11.2535 -85.3531 318° Northwest  Level Estimated
03:12PM 11.3001 -85.3957 318° Northwest  Level Estimated
03:13PM 11.3467 -85.4383 318° Northwest  Level Estimated
03:14PM 11.3933 -85.4809 318° Northwest  Level Estimated
03:15PM 11.4398 -85.5235 318° Northwest  Level Estimated
03:16PM 11.4864 -85.5661 318° Northwest  Level Estimated
03:17PM 11.5329 -85.6088 318° Northwest  Level Estimated
03:18PM 11.5794 -85.6514 318° Northwest  Level Estimated
03:19PM 11.6260 -85.6941 318° Northwest  Level Estimated
03:20PM 11.6725 -85.7368 318° Northwest  Level Estimated
03:21PM 11.7190 -85.7795 318° Northwest  Level Estimated
03:22PM 11.7655 -85.8222 318° Northwest  Level Estimated
03:23PM 11.8120 -85.8649 318° Northwest  Level Estimated
03:24PM 11.8585 -85.9076 318° Northwest  Level Estimated
03:25PM 11.9050 -85.9504 318° Northwest  Level Estimated
03:26PM 11.9515 -85.9932 318° Northwest  Level Estimated
03:27PM 11.9980 -86.0359 318° Northwest  Level Estimated
03:28PM 12.0444 -86.0787 318° Northwest  Level Estimated
03:29PM 12.0909 -86.1216 318° Northwest  Level Estimated
03:30PM 12.1374 -86.1644 318° Northwest  Level Estimated
03:31PM 12.1415 -86.1682 318° Northwest  Level Estimated
03:32PM 12.1415 -86.1682 26° Northeast  Level Estimated
03:33PM 12.1415 -86.1682 26° Northeast  Level Estimated
03:34PM 12.1415 -86.1682 26° Northeast  Level Estimated
03:35PM 12.1415 -86.1682 26° Northeast  Level Estimated
03:36PM 12.1415 -86.1682 26° Northeast  Level Estimated
03:37PM 12.1415 -86.1682 26° Northeast  Level Estimated
03:38PM 12.1415 -86.1682 26° Northeast  Level Estimated
03:39PM 12.1415 -86.1682 26° Northeast  Level Estimated
03:40PM 12.1415 -86.1682 26° Northeast  Level Estimated
03:41PM 12.1415 -86.1682 26° Northeast  Level Estimated
03:42PM 12.1415 -86.1682 26° Northeast  Level Estimated
03:43PM 12.1415 -86.1682 26° Northeast  Level Estimated
03:44PM 12.1415 -86.1682 26° Northeast  Level Estimated
03:45PM 12.1415 -86.1682 26° Northeast  Level Estimated
03:46PM 12.1415 -86.1682 26° Northeast  Level Estimated